createdAt,value
2019-02-27T00:01:35.334Z,99.90
2019-02-27T00:04:04.166Z,99.90
2019-02-27T00:06:32.146Z,99.90
2019-02-27T00:09:00.513Z,99.90
2019-02-27T00:11:29.238Z,99.90
2019-02-27T00:13:57.994Z,99.90
2019-02-27T00:16:28.119Z,99.20
2019-02-27T00:18:58.581Z,99.70
2019-02-27T00:21:26.246Z,99.20
2019-02-27T00:23:56.886Z,98.80
2019-02-27T00:26:26.762Z,98.10
2019-02-27T00:28:56.139Z,98.00
2019-02-27T00:31:24.856Z,98.20
2019-02-27T00:33:53.031Z,98.70
2019-02-27T00:36:21.332Z,99.30
2019-02-27T00:38:49.414Z,99.60
2019-02-27T00:41:17.510Z,99.90
2019-02-27T00:43:45.603Z,99.90
2019-02-27T00:46:13.996Z,99.90
2019-02-27T00:48:42.602Z,99.90
2019-02-27T00:51:12.035Z,99.90
2019-02-27T00:53:40.908Z,99.90
2019-02-27T00:56:11.942Z,99.90
2019-02-27T00:58:38.856Z,99.90
2019-02-27T01:01:06.961Z,99.90
2019-02-27T01:03:35.142Z,99.90
2019-02-27T01:06:03.676Z,99.90
2019-02-27T01:08:31.786Z,99.90
2019-02-27T01:10:59.826Z,99.90
2019-02-27T01:13:28.881Z,99.90
2019-02-27T01:15:57.834Z,99.90
2019-02-27T01:18:30.526Z,99.90
2019-02-27T01:20:57.067Z,99.90
2019-02-27T01:23:25.070Z,99.90
2019-02-27T01:25:56.052Z,99.90
2019-02-27T01:28:23.105Z,99.90
2019-02-27T01:30:51.222Z,99.90
2019-02-27T01:33:20.618Z,99.90
2019-02-27T01:35:51.286Z,99.90
2019-02-27T01:38:18.714Z,99.90
2019-02-27T01:40:48.990Z,99.90
2019-02-27T01:43:18.045Z,99.90
2019-02-27T01:45:46.372Z,99.90
2019-02-27T01:48:15.470Z,99.90
2019-02-27T01:50:43.659Z,99.90
2019-02-27T01:53:11.735Z,99.90
2019-02-27T01:55:39.822Z,99.90
2019-02-27T01:58:09.500Z,99.90
2019-02-27T02:00:38.450Z,99.90
2019-02-27T02:03:06.639Z,99.90
2019-02-27T02:05:36.026Z,99.90
2019-02-27T02:08:13.505Z,99.90
2019-02-27T02:10:38.757Z,99.90
2019-02-27T02:13:33.054Z,99.90
2019-02-27T02:16:38.989Z,99.90
2019-02-27T02:19:39.512Z,99.90
2019-02-27T02:22:38.918Z,99.90
2019-02-27T02:26:05.045Z,99.90
2019-02-27T02:29:10.019Z,99.90
2019-02-27T02:32:16.811Z,99.90
2019-02-27T02:35:15.765Z,99.90
2019-02-27T02:38:27.043Z,99.90
2019-02-27T02:41:47.999Z,99.90
2019-02-27T02:44:29.435Z,99.90
2019-02-27T02:47:47.198Z,99.90
2019-02-27T02:51:09.443Z,99.90
2019-02-27T02:54:53.318Z,99.90
2019-02-27T02:58:03.341Z,99.90
2019-02-27T03:00:52.262Z,99.90
2019-02-27T03:03:46.350Z,99.90
2019-02-27T03:06:35.095Z,99.90
2019-02-27T03:09:16.650Z,99.90
2019-02-27T03:12:31.376Z,99.90
2019-02-27T03:15:32.747Z,99.90
2019-02-27T03:18:15.752Z,99.90
2019-02-27T03:21:06.132Z,99.90
2019-02-27T03:24:15.086Z,99.90
2019-02-27T03:27:32.458Z,99.90
2019-02-27T03:30:45.435Z,99.90
2019-02-27T03:33:50.923Z,99.90
2019-02-27T03:37:13.113Z,99.90
2019-02-27T03:39:55.026Z,99.90
2019-02-27T03:43:11.350Z,99.90
2019-02-27T03:46:32.676Z,99.90
2019-02-27T03:49:40.834Z,99.90
2019-02-27T03:52:40.241Z,99.90
2019-02-27T03:55:51.788Z,99.90
2019-02-27T03:59:06.344Z,99.90
2019-02-27T04:01:48.071Z,99.90
2019-02-27T04:04:29.560Z,99.90
2019-02-27T04:07:32.624Z,99.90
2019-02-27T04:10:01.102Z,99.90
2019-02-27T04:12:30.331Z,99.90
2019-02-27T04:14:58.461Z,99.90
2019-02-27T04:17:28.977Z,99.90
2019-02-27T04:19:57.202Z,99.90
2019-02-27T04:22:27.259Z,99.90
2019-02-27T04:24:57.674Z,99.90
2019-02-27T04:27:27.288Z,99.90
2019-02-27T04:29:56.595Z,99.90
2019-02-27T04:32:24.787Z,99.90
2019-02-27T04:34:52.934Z,99.90
2019-02-27T04:37:21.203Z,99.90
2019-02-27T04:39:50.491Z,99.90
2019-02-27T04:42:22.957Z,99.90
2019-02-27T04:44:51.433Z,99.90
2019-02-27T04:47:21.454Z,99.90
2019-02-27T04:49:50.550Z,99.90
2019-02-27T04:52:18.786Z,99.90
2019-02-27T04:54:46.816Z,99.90
2019-02-27T04:57:14.999Z,99.90
2019-02-27T04:59:44.353Z,99.90
2019-02-27T05:02:14.654Z,99.90
2019-02-27T05:04:42.528Z,99.90
2019-02-27T05:07:10.574Z,99.90
2019-02-27T05:09:39.745Z,99.90
2019-02-27T05:12:10.443Z,99.90
2019-02-27T05:14:38.591Z,99.90
2019-02-27T05:17:06.847Z,99.90
2019-02-27T05:19:37.241Z,99.90
2019-02-27T05:22:05.758Z,99.90
2019-02-27T05:24:34.196Z,99.90
2019-02-27T05:27:03.596Z,99.90
2019-02-27T05:29:31.839Z,99.90
2019-02-27T05:32:00.007Z,99.90
2019-02-27T05:34:27.942Z,99.90
2019-02-27T05:36:55.967Z,99.90
2019-02-27T05:39:24.122Z,99.90
